Time;durP1;ratioP1;P1;durP2;ratioP2;P2;SDS_P1;SDS_P2;PMS_P1;PMS_P2;Temp;Humidity;BMP_temperature;BMP_pressure;BME280_temperature;BME280_humidity;BME280_pressure;Samples;Min_cycle;Max_cycle;Signal;HPM_P1;HPM_P2
2023/10/21 00:00:27;;;;;;;27.43;25.47;;;6.00;94.90;;;;;;5096357;28;20250;-88
2023/10/21 00:02:53;;;;;;;44.97;41.97;;;6.00;94.90;;;;;;5095343;28;20179;-87
2023/10/21 00:05:18;;;;;;;46.00;43.13;;;6.00;95.00;;;;;;5095903;28;20197;-89
2023/10/21 00:07:44;;;;;;;28.93;27.03;;;6.00;95.00;;;;;;5095678;28;20198;-89
2023/10/21 00:10:09;;;;;;;29.63;27.40;;;6.00;95.00;;;;;;5094886;28;20253;-89
2023/10/21 00:12:38;;;;;;;28.57;26.57;;;6.00;95.00;;;;;;5095308;28;20289;-90
2023/10/21 00:15:07;;;;;;;49.70;46.37;;;6.10;95.10;;;;;;5095240;28;20199;-91
2023/10/21 00:17:33;;;;;;;50.23;46.73;;;6.10;95.10;;;;;;5095843;28;20284;-91
2023/10/21 00:20:00;;;;;;;29.07;27.07;;;6.10;95.10;;;;;;5094023;28;20253;-89
2023/10/21 00:22:26;;;;;;;29.77;27.87;;;6.10;95.10;;;;;;5094118;28;20179;-89
2023/10/21 00:24:52;;;;;;;38.00;35.30;;;6.00;95.10;;;;;;5094887;28;20202;-89
2023/10/21 00:27:17;;;;;;;49.17;46.07;;;6.10;95.20;;;;;;5093777;28;20699;-89
2023/10/21 00:29:43;;;;;;;52.10;48.93;;;6.10;95.20;;;;;;5095136;28;20190;-89
2023/10/21 00:32:09;;;;;;;29.03;27.13;;;6.10;95.20;;;;;;5093387;28;20206;-89
2023/10/21 00:34:38;;;;;;;30.53;28.40;;;6.10;95.20;;;;;;5093901;28;20194;-89
2023/10/21 00:37:08;;;;;;;30.33;28.23;;;6.10;95.20;;;;;;5093516;28;20167;-90
2023/10/21 00:39:34;;;;;;;31.67;29.03;;;6.10;95.20;;;;;;5093471;28;20170;-89
2023/10/21 00:42:01;;;;;;;31.80;29.40;;;6.20;95.30;;;;;;5093416;28;20182;-90
2023/10/21 00:44:26;;;;;;;34.30;31.73;;;6.10;95.30;;;;;;5093623;28;20174;-89
2023/10/21 00:46:52;;;;;;;30.83;28.70;;;6.10;95.30;;;;;;5094449;28;20232;-89
2023/10/21 00:49:17;;;;;;;31.27;29.07;;;6.10;95.30;;;;;;5097818;28;20630;-89
2023/10/21 00:51:44;;;;;;;32.30;29.90;;;6.10;95.40;;;;;;5097851;28;20273;-90
2023/10/21 00:54:10;;;;;;;31.80;29.47;;;6.20;95.40;;;;;;5097034;28;20213;-90
2023/10/21 00:56:36;;;;;;;34.07;31.43;;;6.20;95.40;;;;;;5097504;28;20702;-90
2023/10/21 00:59:02;;;;;;;32.47;30.20;;;6.20;95.40;;;;;;5098757;28;20170;-89
2023/10/21 01:01:27;;;;;;;33.03;30.53;;;6.20;95.40;;;;;;5097181;28;20630;-89
2023/10/21 01:03:53;;;;;;;33.47;31.00;;;6.20;95.40;;;;;;5098553;28;20304;-90
2023/10/21 01:06:19;;;;;;;33.53;31.07;;;6.20;95.50;;;;;;5097194;28;20198;-89
2023/10/21 01:08:48;;;;;;;31.07;28.93;;;6.20;95.50;;;;;;5098582;28;20206;-90
2023/10/21 01:11:13;;;;;;;33.33;30.40;;;6.20;95.50;;;;;;5098536;28;20182;-89
2023/10/21 01:13:39;;;;;;;32.30;29.80;;;6.20;95.50;;;;;;5098306;28;20203;-89
2023/10/21 01:16:05;;;;;;;33.07;30.57;;;6.20;95.50;;;;;;5097170;28;20247;-89
2023/10/21 01:18:33;;;;;;;31.87;29.30;;;6.20;95.50;;;;;;5097079;28;20171;-89
2023/10/21 01:21:01;;;;;;;32.77;30.33;;;6.20;95.60;;;;;;5097164;28;20178;-90
2023/10/21 01:23:27;;;;;;;33.13;30.40;;;6.20;95.60;;;;;;5098539;28;20257;-89
2023/10/21 01:25:53;;;;;;;33.27;30.90;;;6.20;95.60;;;;;;5096812;28;20736;-89
2023/10/21 01:28:19;;;;;;;34.17;31.67;;;6.20;95.60;;;;;;5097299;28;20179;-90
2023/10/21 01:30:45;;;;;;;34.97;32.13;;;6.20;95.60;;;;;;5097483;28;20578;-90
2023/10/21 01:33:10;;;;;;;33.63;31.03;;;6.30;95.60;;;;;;5097016;28;20206;-90
2023/10/21 01:35:36;;;;;;;33.47;30.77;;;6.30;95.60;;;;;;5097041;28;20201;-90
2023/10/21 01:38:01;;;;;;;37.17;34.37;;;6.30;95.60;;;;;;5097104;28;20182;-90
2023/10/21 01:40:27;;;;;;;55.07;50.77;;;6.30;95.60;;;;;;5096844;28;20171;-89
2023/10/21 01:42:52;;;;;;;57.83;53.63;;;6.30;95.60;;;;;;5097961;28;20174;-89
2023/10/21 01:45:18;;;;;;;58.23;54.00;;;6.30;95.70;;;;;;5097749;28;20286;-89
2023/10/21 01:47:43;;;;;;;59.73;55.23;;;6.30;95.70;;;;;;5098158;28;20175;-89
2023/10/21 01:50:09;;;;;;;38.27;35.13;;;6.30;95.70;;;;;;5096478;28;20642;-90
2023/10/21 01:52:36;;;;;;;38.47;35.30;;;6.30;95.70;;;;;;5096183;28;20237;-90
2023/10/21 01:55:06;;;;;;;51.27;47.13;;;6.30;95.70;;;;;;5096345;28;20241;-90
2023/10/21 01:57:32;;;;;;;58.93;54.03;;;6.40;95.70;;;;;;5096313;28;20178;-89
2023/10/21 01:59:59;;;;;;;57.73;53.43;;;6.40;95.70;;;;;;5095715;28;20163;-89
2023/10/21 02:02:25;;;;;;;54.73;50.83;;;6.30;95.70;;;;;;5096732;28;20566;-90
2023/10/21 02:04:51;;;;;;;36.53;33.43;;;6.40;95.70;;;;;;5096497;28;20199;-89
2023/10/21 02:07:16;;;;;;;36.73;33.07;;;6.40;95.70;;;;;;5096349;28;20181;-90
2023/10/21 02:09:42;;;;;;;57.80;52.97;;;6.40;95.70;;;;;;5096634;28;20179;-90
2023/10/21 02:12:08;;;;;;;56.67;52.10;;;6.40;95.80;;;;;;5096181;28;20315;-89
2023/10/21 02:14:34;;;;;;;59.17;54.57;;;6.40;95.80;;;;;;5095717;28;20198;-90
2023/10/21 02:16:59;;;;;;;57.50;53.20;;;6.40;95.80;;;;;;5095694;28;20175;-90
2023/10/21 02:19:25;;;;;;;60.30;54.93;;;6.50;95.80;;;;;;5097073;28;20266;-89
2023/10/21 02:21:51;;;;;;;41.43;37.50;;;6.50;95.80;;;;;;5095579;28;20373;-90
2023/10/21 02:24:16;;;;;;;41.27;37.17;;;6.50;95.80;;;;;;5095640;28;20619;-89
2023/10/21 02:26:42;;;;;;;59.03;54.13;;;6.50;95.80;;;;;;5095586;28;20665;-89
2023/10/21 02:29:07;;;;;;;62.17;57.13;;;6.50;95.80;;;;;;5095681;28;20174;-89
2023/10/21 02:31:33;;;;;;;61.90;57.03;;;6.50;95.80;;;;;;5095602;28;20175;-90
2023/10/21 02:33:59;;;;;;;61.00;56.07;;;6.50;95.80;;;;;;5095286;28;20229;-90
2023/10/21 02:36:24;;;;;;;39.50;36.07;;;6.50;95.90;;;;;;5095887;28;20283;-89
2023/10/21 02:38:53;;;;;;;41.90;37.90;;;6.60;95.90;;;;;;5096928;28;20166;-90
2023/10/21 02:41:19;;;;;;;60.03;55.30;;;6.50;95.90;;;;;;5096765;28;20170;-90
2023/10/21 02:43:45;;;;;;;61.93;56.57;;;6.60;95.90;;;;;;5095253;28;20249;-90
2023/10/21 02:46:12;;;;;;;60.70;55.20;;;6.60;95.90;;;;;;5096461;28;20194;-90
2023/10/21 02:48:38;;;;;;;62.33;57.17;;;6.60;95.90;;;;;;5096794;28;20175;-90
2023/10/21 02:51:15;;;;;;;61.73;56.47;;;6.60;95.90;;;;;;5094880;28;20170;-90
2023/10/21 02:53:41;;;;;;;63.27;57.67;;;6.60;96.00;;;;;;5095646;28;20252;-91
2023/10/21 02:56:07;;;;;;;63.97;58.50;;;6.60;96.00;;;;;;5095136;28;20206;-90
2023/10/21 02:58:34;;;;;;;66.97;61.43;;;6.60;96.00;;;;;;5094437;28;20544;-89
2023/10/21 03:01:18;;;;;;;45.17;40.97;;;6.60;96.00;;;;;;5095204;28;20163;-90
2023/10/21 03:03:45;;;;;;;43.27;39.50;;;6.60;96.00;;;;;;5093534;28;20182;-90
2023/10/21 03:06:16;;;;;;;61.93;56.47;;;6.60;96.00;;;;;;5094070;28;20201;-90
2023/10/21 03:08:42;;;;;;;63.07;57.77;;;6.70;96.00;;;;;;5094810;28;20692;-89
2023/10/21 03:11:08;;;;;;;67.03;61.03;;;6.70;96.10;;;;;;5093322;28;20174;-90
2023/10/21 03:13:35;;;;;;;43.17;39.03;;;6.70;96.10;;;;;;5093810;28;20202;-90
2023/10/21 03:16:09;;;;;;;45.00;40.40;;;6.70;96.10;;;;;;5093388;28;20261;-90
2023/10/21 03:18:36;;;;;;;66.47;60.37;;;6.70;96.10;;;;;;5093365;28;20594;-90
2023/10/21 03:21:03;;;;;;;66.53;60.50;;;6.70;96.10;;;;;;5093273;28;20197;-89
2023/10/21 03:23:29;;;;;;;67.30;61.67;;;6.80;96.10;;;;;;5094601;28;20174;-90
2023/10/21 03:25:55;;;;;;;46.13;41.57;;;6.80;96.20;;;;;;5093124;28;20198;-89
2023/10/21 03:28:22;;;;;;;46.67;41.73;;;6.80;96.20;;;;;;5093180;28;20171;-90
2023/10/21 03:30:48;;;;;;;46.57;42.10;;;6.80;96.20;;;;;;5094494;28;20173;-90
2023/10/21 03:33:13;;;;;;;49.40;44.50;;;6.80;96.20;;;;;;5093288;28;20198;-90
2023/10/21 03:35:39;;;;;;;48.03;43.10;;;6.80;96.20;;;;;;5094463;28;20191;-89
2023/10/21 03:38:04;;;;;;;47.93;42.90;;;6.80;96.20;;;;;;5094713;28;20552;-90
2023/10/21 03:40:30;;;;;;;48.97;44.03;;;6.80;96.20;;;;;;5093184;28;20174;-90
2023/10/21 03:42:55;;;;;;;46.43;41.87;;;6.80;96.20;;;;;;5093191;28;20206;-90
2023/10/21 03:45:21;;;;;;;46.70;42.00;;;6.90;96.30;;;;;;5092978;28;20209;-90
2023/10/21 03:47:47;;;;;;;49.63;44.57;;;6.90;96.30;;;;;;5092894;28;20645;-89
2023/10/21 03:50:12;;;;;;;49.13;44.13;;;6.90;96.20;;;;;;5094186;28;20649;-90
2023/10/21 03:52:39;;;;;;;50.23;44.73;;;6.90;96.30;;;;;;5092756;28;20195;-90
2023/10/21 03:55:05;;;;;;;49.47;44.23;;;6.90;96.30;;;;;;5093789;28;20210;-89
2023/10/21 03:57:31;;;;;;;48.53;43.53;;;6.90;96.30;;;;;;5093160;28;20175;-90
2023/10/21 03:59:59;;;;;;;50.23;43.93;;;6.90;96.30;;;;;;5092633;28;20166;-89
2023/10/21 04:02:25;;;;;;;50.10;44.80;;;7.00;96.40;;;;;;5092581;28;20206;-89
2023/10/21 04:04:51;;;;;;;52.63;45.87;;;6.90;96.30;;;;;;5093716;28;20575;-90
2023/10/21 04:07:16;;;;;;;60.57;45.03;;;7.00;96.40;;;;;;5092455;28;20174;-90
2023/10/21 04:09:42;;;;;;;54.17;47.00;;;7.00;96.40;;;;;;5092389;28;20182;-89
2023/10/21 04:12:07;;;;;;;49.73;44.43;;;7.00;96.40;;;;;;5092376;28;20665;-90
2023/10/21 04:14:33;;;;;;;54.63;46.07;;;7.00;96.40;;;;;;5092326;28;20194;-90
2023/10/21 04:16:59;;;;;;;51.10;45.17;;;7.00;96.40;;;;;;5092381;28;20257;-90
2023/10/21 04:19:25;;;;;;;51.10;45.50;;;7.00;96.40;;;;;;5092400;28;20175;-89
2023/10/21 04:21:50;;;;;;;53.57;45.97;;;7.00;96.40;;;;;;5093822;28;20178;-89
2023/10/21 04:24:16;;;;;;;50.90;45.73;;;7.00;96.40;;;;;;5091923;28;20185;-90
2023/10/21 04:26:41;;;;;;;62.10;49.70;;;7.10;96.40;;;;;;5092206;28;20245;-89
2023/10/21 04:29:08;;;;;;;56.57;47.80;;;7.10;96.40;;;;;;5092253;28;20182;-89
2023/10/21 04:31:35;;;;;;;56.20;47.30;;;7.10;96.40;;;;;;5093439;28;20173;-89
2023/10/21 04:34:02;;;;;;;64.30;48.63;;;7.10;96.40;;;;;;5091988;28;20717;-90
2023/10/21 04:36:27;;;;;;;77.70;69.73;;;7.10;96.50;;;;;;5092076;28;20195;-90
2023/10/21 04:38:53;;;;;;;75.20;67.73;;;7.10;96.40;;;;;;5092225;28;20261;-89
2023/10/21 04:41:18;;;;;;;76.27;69.07;;;7.10;96.50;;;;;;5093635;28;20537;-90
2023/10/21 04:43:44;;;;;;;77.57;69.67;;;7.10;96.50;;;;;;5093274;28;20200;-90
2023/10/21 04:46:09;;;;;;;81.20;72.80;;;7.10;96.50;;;;;;5091942;28;20220;-90
2023/10/21 04:48:35;;;;;;;78.83;71.37;;;7.10;96.50;;;;;;5093538;28;20179;-90
2023/10/21 04:51:00;;;;;;;54.73;49.00;;;7.10;96.50;;;;;;5093458;28;20171;-90
2023/10/21 04:53:26;;;;;;;57.67;52.03;;;7.10;96.50;;;;;;5091845;28;20206;-90
2023/10/21 04:55:51;;;;;;;76.83;69.13;;;7.20;96.50;;;;;;5091839;28;20221;-90
2023/10/21 04:58:17;;;;;;;79.10;72.30;;;7.10;96.50;;;;;;5093174;28;20179;-89
2023/10/21 05:00:42;;;;;;;79.13;72.20;;;7.20;96.50;;;;;;5091953;28;20610;-90
2023/10/21 05:03:08;;;;;;;78.53;71.47;;;7.10;96.50;;;;;;5093044;28;20236;-89
2023/10/21 05:05:34;;;;;;;64.67;58.10;;;7.10;96.50;;;;;;5091876;28;20244;-90
2023/10/21 05:08:01;;;;;;;56.33;47.70;;;7.10;96.50;;;;;;5091909;28;20618;-90
2023/10/21 05:10:27;;;;;;;55.90;48.40;;;7.10;96.50;;;;;;5091784;28;20190;-90
2023/10/21 05:12:52;;;;;;;74.67;67.83;;;7.10;96.50;;;;;;5091807;28;20682;-90
2023/10/21 05:15:18;;;;;;;76.43;68.87;;;7.10;96.50;;;;;;5093024;28;20195;-90
2023/10/21 05:17:43;;;;;;;73.03;66.33;;;7.10;96.60;;;;;;5093143;28;20163;-89
2023/10/21 05:20:09;;;;;;;79.07;70.60;;;7.20;96.60;;;;;;5091754;28;20227;-90
2023/10/21 05:22:34;;;;;;;75.87;69.33;;;7.20;96.60;;;;;;5091647;28;20663;-90
2023/10/21 05:25:00;;;;;;;75.57;68.27;;;7.20;96.60;;;;;;5093362;28;20207;-90
2023/10/21 05:27:26;;;;;;;76.87;70.10;;;7.20;96.60;;;;;;5092895;28;20268;-90
2023/10/21 05:29:51;;;;;;;78.30;70.97;;;7.20;96.60;;;;;;5091645;28;20235;-90
2023/10/21 05:32:17;;;;;;;81.63;74.20;;;7.20;96.60;;;;;;5091584;28;20202;-90
2023/10/21 05:34:42;;;;;;;56.03;50.37;;;7.20;96.60;;;;;;5092764;28;20685;-90
2023/10/21 05:37:08;;;;;;;55.13;49.53;;;7.20;96.60;;;;;;5095206;28;20650;-89
2023/10/21 05:39:33;;;;;;;74.93;67.53;;;7.20;96.60;;;;;;5096787;28;20170;-91
2023/10/21 05:41:59;;;;;;;78.97;71.20;;;7.20;96.60;;;;;;5095576;28;20174;-90
2023/10/21 05:44:24;;;;;;;81.80;74.63;;;7.20;96.60;;;;;;5095431;28;20256;-90
2023/10/21 05:46:51;;;;;;;57.53;51.33;;;7.20;96.70;;;;;;5095120;28;20654;-90
2023/10/21 05:49:18;;;;;;;58.80;49.40;;;7.20;96.70;;;;;;5095204;28;20175;-90
2023/10/21 05:51:43;;;;;;;75.87;68.13;;;7.20;96.60;;;;;;5095161;28;20670;-89
2023/10/21 05:54:09;;;;;;;69.73;63.67;;;7.20;96.70;;;;;;5095135;28;20237;-90
2023/10/21 05:56:34;;;;;;;77.07;70.00;;;7.20;96.70;;;;;;5094992;28;20178;-90
2023/10/21 05:59:00;;;;;;;52.97;46.50;;;7.20;96.70;;;;;;5095111;28;20167;-90
2023/10/21 06:01:26;;;;;;;51.80;46.30;;;7.20;96.70;;;;;;5094933;28;20224;-90
2023/10/21 06:03:52;;;;;;;54.57;48.73;;;7.20;96.70;;;;;;5096393;28;20649;-90
2023/10/21 06:06:18;;;;;;;51.77;46.17;;;7.20;96.70;;;;;;5096114;28;20229;-90
2023/10/21 06:08:44;;;;;;;52.93;47.63;;;7.30;96.70;;;;;;5095080;28;20171;-90
2023/10/21 06:11:09;;;;;;;55.07;45.90;;;7.20;96.70;;;;;;5094713;28;20179;-90
2023/10/21 06:13:35;;;;;;;53.50;45.97;;;7.30;96.70;;;;;;5096093;28;20202;-89
2023/10/21 06:16:01;;;;;;;49.83;44.83;;;7.30;96.70;;;;;;5094592;28;20186;-90
2023/10/21 06:18:26;;;;;;;52.53;46.50;;;7.30;96.70;;;;;;5094685;28;20166;-89
2023/10/21 06:20:53;;;;;;;51.70;46.33;;;7.20;96.70;;;;;;5094637;28;20571;-89
2023/10/21 06:23:19;;;;;;;50.73;45.20;;;7.30;96.80;;;;;;5094495;28;20174;-90
2023/10/21 06:25:45;;;;;;;47.13;42.20;;;7.30;96.70;;;;;;5094391;28;20603;-90
2023/10/21 06:28:12;;;;;;;52.33;46.80;;;7.30;96.80;;;;;;5095805;28;20170;-89
2023/10/21 06:30:40;;;;;;;53.27;47.77;;;7.30;96.80;;;;;;5094373;28;20529;-90
2023/10/21 06:33:06;;;;;;;59.73;48.53;;;7.30;96.80;;;;;;5095541;28;20217;-90
2023/10/21 06:35:32;;;;;;;51.90;46.37;;;7.30;96.80;;;;;;5094150;28;20190;-90
2023/10/21 06:37:58;;;;;;;53.27;46.47;;;7.30;96.80;;;;;;5095398;28;20189;-89
2023/10/21 06:40:23;;;;;;;51.20;45.77;;;7.30;96.80;;;;;;5094503;28;20166;-90
2023/10/21 06:42:49;;;;;;;50.70;45.60;;;7.30;96.80;;;;;;5094113;28;20203;-90
2023/10/21 06:45:15;;;;;;;49.60;44.37;;;7.30;96.80;;;;;;5094310;28;20206;-90
2023/10/21 06:47:40;;;;;;;50.03;44.93;;;7.30;96.80;;;;;;5093900;28;20185;-90
2023/10/21 06:50:06;;;;;;;52.17;46.80;;;7.30;96.80;;;;;;5093954;28;20175;-90
2023/10/21 06:52:32;;;;;;;48.23;43.50;;;7.40;96.80;;;;;;5095120;28;20194;-90
2023/10/21 06:54:57;;;;;;;49.60;44.90;;;7.40;96.80;;;;;;5093878;28;20213;-90
2023/10/21 06:57:23;;;;;;;48.97;43.83;;;7.40;96.80;;;;;;5095296;28;20167;-90
2023/10/21 06:59:50;;;;;;;47.57;43.10;;;7.40;96.80;;;;;;5093883;28;20174;-91
2023/10/21 07:02:17;;;;;;;49.40;44.80;;;7.50;96.80;;;;;;5093872;28;20662;-90
2023/10/21 07:04:43;;;;;;;50.23;45.80;;;7.50;96.80;;;;;;5094117;28;20247;-90
2023/10/21 07:07:10;;;;;;;71.90;66.07;;;7.50;96.80;;;;;;5093679;28;20171;-90
2023/10/21 07:09:37;;;;;;;72.30;66.53;;;7.50;96.90;;;;;;5093681;28;20247;-90
2023/10/21 07:12:03;;;;;;;71.47;65.83;;;7.60;96.80;;;;;;5093693;28;20231;-91
2023/10/21 07:14:29;;;;;;;72.20;66.03;;;7.60;96.80;;;;;;5093454;28;20197;-91
2023/10/21 07:16:55;;;;;;;71.07;65.53;;;7.60;96.80;;;;;;5093462;28;20179;-90
2023/10/21 07:19:21;;;;;;;53.97;48.90;;;7.60;96.80;;;;;;5093426;28;20175;-90
2023/10/21 07:21:48;;;;;;;53.27;48.40;;;7.60;96.80;;;;;;5093477;28;20173;-90
2023/10/21 07:24:14;;;;;;;74.87;68.93;;;7.60;96.90;;;;;;5093363;28;20182;-91
2023/10/21 07:26:40;;;;;;;76.57;70.60;;;7.70;96.80;;;;;;5093887;28;20178;-90
2023/10/21 07:29:07;;;;;;;76.73;70.33;;;7.70;96.80;;;;;;5093139;28;20178;-90
2023/10/21 07:31:33;;;;;;;77.47;71.03;;;7.70;96.80;;;;;;5094440;28;20171;-91
2023/10/21 07:33:59;;;;;;;79.17;72.77;;;7.70;96.80;;;;;;5093192;28;20237;-91
2023/10/21 07:36:25;;;;;;;54.37;49.47;;;7.80;96.90;;;;;;5093061;28;20233;-91
2023/10/21 07:38:51;;;;;;;55.53;50.47;;;7.70;96.80;;;;;;5093152;28;20552;-90
2023/10/21 07:41:16;;;;;;;80.23;73.73;;;7.80;96.80;;;;;;5094289;28;20701;-90
2023/10/21 07:43:42;;;;;;;80.30;73.70;;;7.80;96.90;;;;;;5092954;28;20273;-90
2023/10/21 07:46:08;;;;;;;86.03;78.83;;;7.80;96.80;;;;;;5092359;28;20416;-90
2023/10/21 07:48:33;;;;;;;82.50;75.40;;;7.80;96.80;;;;;;5092860;28;20182;-90
2023/10/21 07:50:59;;;;;;;81.50;74.83;;;7.90;96.80;;;;;;5092859;28;20174;-90
2023/10/21 07:53:24;;;;;;;55.80;50.70;;;7.90;96.80;;;;;;5092715;28;20217;-90
2023/10/21 07:55:50;;;;;;;57.50;52.23;;;7.90;96.80;;;;;;5092644;28;20211;-91
2023/10/21 07:58:16;;;;;;;82.80;76.27;;;7.90;96.80;;;;;;5092180;28;20217;-90
2023/10/21 08:00:42;;;;;;;78.03;71.70;;;7.90;96.80;;;;;;5094034;28;20175;-90
2023/10/21 08:03:08;;;;;;;80.10;73.87;;;8.00;96.80;;;;;;5093821;28;20650;-91
2023/10/21 08:05:33;;;;;;;54.57;49.93;;;8.00;96.80;;;;;;5093783;28;20194;-90
2023/10/21 08:07:59;;;;;;;52.70;48.07;;;8.00;96.80;;;;;;5092523;28;20178;-90
2023/10/21 08:10:24;;;;;;;55.73;50.73;;;8.00;96.80;;;;;;5092465;28;20240;-90
2023/10/21 08:12:50;;;;;;;55.50;50.70;;;8.00;96.80;;;;;;5092583;28;20583;-90
2023/10/21 08:15:16;;;;;;;56.33;51.30;;;8.00;96.80;;;;;;5092418;28;20634;-90
2023/10/21 08:17:41;;;;;;;56.30;51.43;;;8.00;96.80;;;;;;5092601;28;20171;-91
2023/10/21 08:20:08;;;;;;;53.93;49.20;;;8.00;96.80;;;;;;5092599;28;20178;-90
2023/10/21 08:22:34;;;;;;;56.60;51.63;;;8.00;96.80;;;;;;5092368;28;20179;-90
2023/10/21 08:25:00;;;;;;;56.03;50.97;;;8.00;96.80;;;;;;5092177;28;20202;-90
2023/10/21 08:27:26;;;;;;;57.43;51.93;;;8.10;96.70;;;;;;5093523;28;20548;-90
2023/10/21 08:29:53;;;;;;;54.53;49.53;;;8.10;96.80;;;;;;5092298;28;20175;-90
2023/10/21 08:32:18;;;;;;;55.70;50.73;;;8.20;96.80;;;;;;5092102;28;20205;-90
2023/10/21 08:34:44;;;;;;;57.13;52.13;;;8.10;96.70;;;;;;5092247;28;20217;-90
2023/10/21 08:37:09;;;;;;;57.77;52.87;;;8.20;96.70;;;;;;5092091;28;20201;-90
2023/10/21 08:39:35;;;;;;;58.53;53.43;;;8.20;96.70;;;;;;5093284;28;20175;-90
2023/10/21 08:42:02;;;;;;;57.90;52.77;;;8.10;96.70;;;;;;5092089;28;20256;-90
2023/10/21 08:44:30;;;;;;;56.87;52.17;;;8.20;96.70;;;;;;5092008;28;20199;-90
2023/10/21 08:46:57;;;;;;;55.57;50.83;;;8.20;96.70;;;;;;5092024;28;20174;-90
2023/10/21 08:49:23;;;;;;;55.97;51.57;;;8.30;96.70;;;;;;5092379;28;20202;-89
2023/10/21 08:51:52;;;;;;;85.27;79.07;;;8.30;96.70;;;;;;5092851;28;20246;-90
2023/10/21 08:54:18;;;;;;;86.37;80.27;;;8.30;96.70;;;;;;5091835;28;20198;-90
2023/10/21 08:56:44;;;;;;;84.60;78.67;;;8.30;96.70;;;;;;5093517;28;20183;-90
2023/10/21 08:59:10;;;;;;;55.37;51.07;;;8.30;96.70;;;;;;5092051;28;20516;-90
2023/10/21 09:01:36;;;;;;;55.57;51.30;;;8.40;96.70;;;;;;5093189;28;20642;-90
2023/10/21 09:04:03;;;;;;;81.30;75.50;;;8.40;96.60;;;;;;5093939;28;20175;-91
2023/10/21 09:06:29;;;;;;;82.73;77.13;;;8.40;96.70;;;;;;5095955;28;20281;-90
2023/10/21 09:08:54;;;;;;;86.13;80.13;;;8.50;96.70;;;;;;5095999;28;20588;-91
2023/10/21 09:11:24;;;;;;;54.50;50.37;;;8.50;96.60;;;;;;5100103;28;20171;-91
2023/10/21 09:13:52;;;;;;;54.67;50.67;;;8.50;96.60;;;;;;5099230;28;20205;-90
2023/10/21 09:16:26;;;;;;;83.50;77.90;;;8.50;96.60;;;;;;5098747;28;20198;-90
2023/10/21 09:19:00;;;;;;;82.20;76.47;;;8.50;96.60;;;;;;5098511;28;20220;-91
2023/10/21 09:21:32;;;;;;;83.30;77.70;;;8.50;96.60;;;;;;5102014;28;20159;-92
2023/10/21 09:23:59;;;;;;;54.20;50.33;;;8.60;96.60;;;;;;5097518;28;20178;-91
2023/10/21 09:26:35;;;;;;;54.57;50.67;;;8.60;96.60;;;;;;5102284;28;20301;-91
2023/10/21 09:29:20;;;;;;;82.20;76.70;;;8.60;96.60;;;;;;5101734;28;20253;-91
2023/10/21 09:31:53;;;;;;;81.47;76.10;;;8.70;96.60;;;;;;5098626;28;20166;-91
2023/10/21 09:34:24;;;;;;;78.30;73.13;;;8.70;96.60;;;;;;5099658;28;20203;-91
2023/10/21 09:36:55;;;;;;;53.23;49.10;;;8.70;96.50;;;;;;5098184;28;20173;-91
2023/10/21 09:39:22;;;;;;;51.47;47.87;;;8.80;96.60;;;;;;5099466;28;20194;-90
2023/10/21 09:41:48;;;;;;;78.67;73.77;;;8.80;96.50;;;;;;5098212;28;20525;-90
2023/10/21 09:44:15;;;;;;;90.10;84.50;;;8.80;96.50;;;;;;5097928;28;20179;-91
2023/10/21 09:46:43;;;;;;;84.17;78.90;;;8.80;96.50;;;;;;5098755;28;20175;-90
2023/10/21 09:49:11;;;;;;;49.03;45.83;;;8.90;96.50;;;;;;5097261;28;20182;-91
2023/10/21 09:52:07;;;;;;;46.20;43.20;;;8.90;96.50;;;;;;5097165;28;20185;-91
2023/10/21 09:55:05;;;;;;;48.33;45.27;;;9.00;96.50;;;;;;5096278;28;20258;-91
2023/10/21 09:57:31;;;;;;;49.13;46.03;;;9.00;96.50;;;;;;5098474;28;20151;-90
2023/10/21 09:59:58;;;;;;;49.60;46.60;;;9.10;96.50;;;;;;5097285;28;20227;-91
2023/10/21 10:02:25;;;;;;;45.00;42.20;;;9.10;96.50;;;;;;5097121;28;20178;-90
2023/10/21 10:04:53;;;;;;;48.53;45.53;;;9.00;96.50;;;;;;5096515;28;20198;-90
2023/10/21 10:07:19;;;;;;;48.60;45.60;;;9.00;96.40;;;;;;5106652;28;20175;-92
2023/10/21 10:09:45;;;;;;;48.93;45.73;;;9.10;96.40;;;;;;5104134;28;20615;-91
2023/10/21 10:12:25;;;;;;;46.60;43.80;;;9.10;96.40;;;;;;5102368;28;20177;-92
2023/10/21 10:14:53;;;;;;;48.00;44.90;;;9.10;96.40;;;;;;5102045;28;20199;-92
2023/10/21 10:17:50;;;;;;;47.43;44.63;;;9.10;96.40;;;;;;5103450;28;20166;-91
2023/10/21 10:20:27;;;;;;;49.23;46.03;;;9.10;96.40;;;;;;5104323;28;20174;-91
2023/10/21 10:23:07;;;;;;;43.90;41.20;;;9.10;96.40;;;;;;5102943;28;20153;-91
2023/10/21 10:25:40;;;;;;;49.30;46.10;;;9.20;96.40;;;;;;5100069;28;20286;-91
2023/10/21 10:28:18;;;;;;;49.23;46.23;;;9.20;96.40;;;;;;5099783;28;20265;-91
2023/10/21 10:30:45;;;;;;;50.27;47.27;;;9.20;96.40;;;;;;5097086;28;20210;-91
2023/10/21 10:33:15;;;;;;;48.57;45.67;;;9.20;96.40;;;;;;5097608;28;20194;-91
2023/10/21 10:35:46;;;;;;;48.17;45.17;;;9.20;96.30;;;;;;5096139;28;20194;-91
2023/10/21 10:38:17;;;;;;;49.60;46.60;;;9.20;96.30;;;;;;5096051;28;20170;-91
2023/10/21 10:40:44;;;;;;;49.57;46.37;;;9.30;96.40;;;;;;5095912;28;20636;-91
2023/10/21 10:43:10;;;;;;;49.17;46.07;;;9.30;96.30;;;;;;5095929;28;20183;-91
2023/10/21 10:45:36;;;;;;;50.27;47.27;;;9.30;96.30;;;;;;5096373;28;20202;-90
2023/10/21 10:48:03;;;;;;;48.30;45.30;;;9.30;96.30;;;;;;5096508;28;20707;-90
2023/10/21 10:50:30;;;;;;;49.70;46.70;;;9.30;96.30;;;;;;5097506;28;20546;-90
2023/10/21 10:52:56;;;;;;;47.93;45.03;;;9.30;96.30;;;;;;5098056;28;20206;-91
2023/10/21 10:55:22;;;;;;;51.23;48.17;;;9.30;96.30;;;;;;5095727;28;20237;-91
2023/10/21 10:57:49;;;;;;;49.73;46.73;;;9.30;96.30;;;;;;5096125;28;20562;-91
2023/10/21 11:00:20;;;;;;;49.77;46.77;;;9.40;96.30;;;;;;5097140;28;20545;-91
2023/10/21 11:02:49;;;;;;;47.53;44.73;;;9.40;96.30;;;;;;5097968;28;20159;-91
2023/10/21 11:05:22;;;;;;;48.37;45.43;;;9.40;96.30;;;;;;5096513;28;20259;-92
2023/10/21 11:07:50;;;;;;;49.70;46.70;;;9.40;96.30;;;;;;5096872;28;20186;-91
2023/10/21 11:10:20;;;;;;;52.40;49.30;;;9.40;96.20;;;;;;5095975;28;20559;-91
2023/10/21 11:12:47;;;;;;;52.30;49.00;;;9.40;96.20;;;;;;5096823;28;20233;-91
2023/10/21 11:15:13;;;;;;;50.27;47.23;;;9.40;96.30;;;;;;5095430;28;20243;-91
2023/10/21 11:17:40;;;;;;;49.80;46.80;;;9.50;96.30;;;;;;5095642;28;20258;-91
2023/10/21 11:20:07;;;;;;;50.87;47.77;;;9.50;96.30;;;;;;5095449;28;20181;-91
2023/10/21 11:22:33;;;;;;;57.00;53.50;;;9.50;96.30;;;;;;5095411;28;20231;-91
2023/10/21 11:24:59;;;;;;;56.43;52.90;;;9.50;96.20;;;;;;5095295;28;20198;-91
2023/10/21 11:27:25;;;;;;;56.30;52.80;;;9.60;96.30;;;;;;5097153;28;20235;-91
2023/10/21 11:29:52;;;;;;;57.30;53.77;;;9.60;96.20;;;;;;5096911;28;20189;-91
2023/10/21 11:32:28;;;;;;;90.80;85.40;;;9.60;96.20;;;;;;5096865;28;20179;-91
2023/10/21 11:34:54;;;;;;;90.10;84.70;;;9.60;96.20;;;;;;5098230;28;20677;-91
2023/10/21 11:37:20;;;;;;;86.17;81.07;;;9.60;96.20;;;;;;5097482;28;20649;-92
2023/10/21 11:39:49;;;;;;;86.60;81.40;;;9.60;96.20;;;;;;5097176;28;20183;-91
2023/10/21 11:42:18;;;;;;;58.17;54.57;;;9.70;96.20;;;;;;5098758;28;20181;-92
2023/10/21 11:44:58;;;;;;;57.00;53.40;;;9.70;96.20;;;;;;5112127;28;20221;-92
2023/10/21 11:47:28;;;;;;;87.90;82.60;;;9.70;96.20;;;;;;5105859;28;20182;-91
2023/10/21 11:49:55;;;;;;;87.40;82.07;;;9.70;96.20;;;;;;5104487;28;20174;-92
2023/10/21 11:52:22;;;;;;;86.10;80.87;;;9.80;96.20;;;;;;5104453;28;20185;-92
2023/10/21 12:13:47;;;;;;;63.90;59.97;;;9.90;96.10;;;;;;5097040;28;20255;-91
2023/10/21 12:24:45;;;;;;;60.03;56.37;;;10.10;96.10;;;;;;5096449;28;20161;-91
2023/10/21 12:32:43;;;;;;;61.47;57.67;;;10.20;96.10;;;;;;5101499;28;20190;-92
2023/10/21 12:40:31;;;;;;;58.90;55.30;;;10.60;96.10;;;;;;5097358;28;20183;-91
2023/10/21 12:45:46;;;;;;;58.50;54.63;;;10.70;96.10;;;;;;5096109;28;20199;-92
2023/10/21 12:48:18;;;;;;;59.30;55.60;;;10.80;96.10;;;;;;5093952;28;20252;-91
2023/10/21 12:50:45;;;;;;;60.00;56.23;;;10.90;96.10;;;;;;5095887;28;20188;-91
2023/10/21 12:53:12;;;;;;;58.70;54.93;;;11.00;96.10;;;;;;5095533;28;20202;-91
2023/10/21 12:55:38;;;;;;;57.43;53.73;;;11.20;96.20;;;;;;5096298;28;20210;-92
2023/10/21 12:58:04;;;;;;;57.40;53.80;;;11.30;96.20;;;;;;5096145;28;20174;-91
2023/10/21 13:00:31;;;;;;;58.27;54.67;;;11.30;96.10;;;;;;5095520;28;20178;-91
2023/10/21 13:02:57;;;;;;;58.03;54.43;;;11.30;96.10;;;;;;5091997;28;20262;-91
2023/10/21 13:05:22;;;;;;;57.97;54.27;;;11.20;96.00;;;;;;5091934;28;20276;-90
2023/10/21 13:07:48;;;;;;;59.13;55.23;;;11.30;96.00;;;;;;5092805;28;20634;-91
2023/10/21 13:10:14;;;;;;;61.37;57.47;;;11.30;96.00;;;;;;5092225;28;20181;-91
2023/10/21 13:12:40;;;;;;;58.57;54.70;;;11.30;95.90;;;;;;5091820;28;20206;-91
2023/10/21 13:15:12;;;;;;;94.53;88.63;;;11.20;95.90;;;;;;5091781;28;20221;-90